Time;durP1;ratioP1;P1;durP2;ratioP2;P2;SDS_P1;SDS_P2;PMS_P1;PMS_P2;Temp;Humidity;BMP_temperature;BMP_pressure;BME280_temperature;BME280_humidity;BME280_pressure;Samples;Min_cycle;Max_cycle;Signal;HPM_P1;HPM_P2
2021/07/06 00:00:37;;;;;;;2.53;1.80;;;;;;;;;;4985037;28;20047;-44
2021/07/06 00:03:04;;;;;;;2.40;1.70;;;;;;;;;;4973689;28;20521;-44
2021/07/06 00:05:31;;;;;;;3.58;1.45;;;;;;;;;;4987333;28;20050;-43
2021/07/06 00:08:04;;;;;;;3.22;1.45;;;;;;;;;;4984378;28;20538;-45
2021/07/06 00:10:31;;;;;;;3.75;1.58;;;;;;;;;;4974082;28;20496;-47
2021/07/06 00:12:58;;;;;;;2.75;1.40;;;;;;;;;;4973464;28;20130;-43
2021/07/06 00:15:24;;;;;;;3.25;1.40;;;;;;;;;;4977170;28;20571;-47
2021/07/06 00:17:52;;;;;;;5.57;1.80;;;;;;;;;;5001132;28;20125;-46
2021/07/06 00:20:20;;;;;;;2.20;1.40;;;;;;;;;;4974005;28;20042;-45
2021/07/06 00:22:47;;;;;;;2.78;1.60;;;;;;;;;;4973221;28;20499;-44
2021/07/06 00:25:14;;;;;;;2.15;1.60;;;;;;;;;;4973765;28;20134;-44
2021/07/06 00:27:41;;;;;;;3.20;1.50;;;;;;;;;;4979608;28;20117;-43
2021/07/06 00:30:09;;;;;;;2.47;1.70;;;;;;;;;;4991954;28;20503;-44
2021/07/06 00:32:36;;;;;;;3.47;1.42;;;;;;;;;;4987579;28;20452;-43
2021/07/06 00:35:04;;;;;;;2.70;1.35;;;;;;;;;;4973577;28;20054;-43
2021/07/06 00:37:31;;;;;;;2.67;1.60;;;;;;;;;;4977731;28;20046;-44
2021/07/06 00:39:58;;;;;;;2.63;1.65;;;;;;;;;;4989976;28;20682;-45
2021/07/06 00:42:25;;;;;;;3.42;1.70;;;;;;;;;;4972970;28;20055;-44
2021/07/06 00:44:53;;;;;;;3.67;1.45;;;;;;;;;;4973428;28;20200;-47
2021/07/06 00:47:36;;;;;;;2.20;1.55;;;;;;;;;;4974974;28;20047;-46
2021/07/06 00:50:05;;;;;;;3.63;1.83;;;;;;;;;;4977678;28;20130;-46
2021/07/06 00:52:32;;;;;;;2.80;1.70;;;;;;;;;;4972721;28;20082;-44
2021/07/06 00:54:58;;;;;;;3.92;1.60;;;;;;;;;;4973322;28;20081;-46
2021/07/06 00:57:31;;;;;;;4.03;1.63;;;;;;;;;;4975053;28;20134;-43
2021/07/06 00:59:59;;;;;;;2.33;1.65;;;;;;;;;;4991343;28;20518;-44
2021/07/06 01:02:26;;;;;;;2.33;1.65;;;;;;;;;;4987732;28;20068;-46
2021/07/06 01:04:53;;;;;;;2.65;1.70;;;;;;;;;;5009680;23;20132;-48
2021/07/06 01:07:20;;;;;;;2.75;1.60;;;;;;;;;;5006126;28;20224;-48
2021/07/06 01:09:47;;;;;;;2.63;1.50;;;;;;;;;;4999679;28;20049;-47
2021/07/06 01:12:14;;;;;;;3.00;1.30;;;;;;;;;;5008222;28;20359;-48
2021/07/06 01:14:41;;;;;;;3.95;1.73;;;;;;;;;;4992282;28;20105;-47
2021/07/06 01:17:08;;;;;;;2.40;1.52;;;;;;;;;;4990698;28;20541;-47
2021/07/06 01:19:40;;;;;;;1.95;1.33;;;;;;;;;;4992765;28;20052;-51
2021/07/06 01:22:07;;;;;;;5.20;1.87;;;;;;;;;;4991184;28;20388;-49
2021/07/06 01:24:37;;;;;;;2.72;1.38;;;;;;;;;;4974076;28;20657;-49
2021/07/06 01:27:05;;;;;;;2.00;1.50;;;;;;;;;;4991539;28;20502;-49
2021/07/06 01:29:32;;;;;;;1.90;1.27;;;;;;;;;;4992701;28;20046;-52
2021/07/06 01:32:00;;;;;;;2.00;1.40;;;;;;;;;;4997331;28;20051;-47
2021/07/06 01:34:27;;;;;;;2.83;1.27;;;;;;;;;;5006736;28;20035;-51
2021/07/06 01:36:54;;;;;;;3.47;1.63;;;;;;;;;;4991557;28;20150;-46
2021/07/06 01:39:21;;;;;;;2.08;1.25;;;;;;;;;;4991460;28;20042;-47
2021/07/06 01:41:48;;;;;;;3.28;1.50;;;;;;;;;;5008572;28;20049;-48
2021/07/06 01:44:22;;;;;;;2.78;1.75;;;;;;;;;;4996347;28;20069;-48
2021/07/06 01:46:49;;;;;;;1.23;1.10;;;;;;;;;;4991246;28;20136;-50
2021/07/06 01:49:16;;;;;;;3.42;1.33;;;;;;;;;;4991064;28;20053;-47
2021/07/06 01:51:44;;;;;;;1.77;1.40;;;;;;;;;;5008706;28;20042;-49
2021/07/06 01:54:12;;;;;;;2.38;1.52;;;;;;;;;;4995297;28;20042;-49
2021/07/06 01:56:39;;;;;;;2.55;1.52;;;;;;;;;;4991046;28;20080;-47
2021/07/06 01:59:06;;;;;;;3.33;1.45;;;;;;;;;;4991473;28;20126;-49
2021/07/06 02:01:34;;;;;;;1.85;1.33;;;;;;;;;;5006683;28;20045;-48
2021/07/06 02:04:01;;;;;;;2.55;1.35;;;;;;;;;;4991165;28;20073;-48
2021/07/06 02:06:28;;;;;;;1.50;1.27;;;;;;;;;;4990214;28;20046;-48
2021/07/06 02:08:55;;;;;;;2.70;1.30;;;;;;;;;;4990919;28;20129;-48
2021/07/06 02:11:21;;;;;;;1.60;1.30;;;;;;;;;;4991460;28;20106;-49
2021/07/06 02:13:48;;;;;;;3.08;1.50;;;;;;;;;;4993303;28;20045;-51
2021/07/06 02:16:15;;;;;;;3.92;1.98;;;;;;;;;;4994871;28;20181;-48
2021/07/06 02:18:42;;;;;;;3.70;1.70;;;;;;;;;;4994698;28;20125;-50
2021/07/06 02:21:09;;;;;;;2.67;1.40;;;;;;;;;;5019492;28;20149;-48
2021/07/06 02:23:36;;;;;;;1.88;1.38;;;;;;;;;;4993980;28;20129;-50
2021/07/06 02:26:04;;;;;;;2.58;1.50;;;;;;;;;;4994899;28;20046;-50
2021/07/06 02:28:31;;;;;;;2.15;1.30;;;;;;;;;;4999109;28;20042;-48
2021/07/06 02:30:59;;;;;;;3.45;1.52;;;;;;;;;;5013414;28;20044;-51
2021/07/06 02:33:32;;;;;;;3.17;1.42;;;;;;;;;;4997182;28;20506;-48
2021/07/06 02:35:58;;;;;;;;;;;;;;;;;;5014565;28;20050;-49
2021/07/06 02:38:25;;;;;;;3.05;1.60;;;;;;;;;;5010619;28;19921;-51
2021/07/06 02:40:52;;;;;;;2.53;1.50;;;;;;;;;;4994829;28;20503;-49
2021/07/06 02:43:19;;;;;;;2.45;1.42;;;;;;;;;;4993971;28;20129;-50
2021/07/06 02:45:45;;;;;;;2.03;1.35;;;;;;;;;;4994390;28;20133;-49
2021/07/06 02:48:12;;;;;;;3.15;1.60;;;;;;;;;;4995637;28;20048;-48
2021/07/06 02:50:40;;;;;;;4.07;1.48;;;;;;;;;;4995596;28;20057;-50
2021/07/06 02:53:11;;;;;;;2.60;1.60;;;;;;;;;;4993458;28;20554;-50
2021/07/06 02:55:38;;;;;;;2.35;1.58;;;;;;;;;;4994331;28;20046;-48
2021/07/06 02:58:05;;;;;;;2.17;1.63;;;;;;;;;;4992970;28;20052;-49
2021/07/06 03:00:32;;;;;;;3.35;1.65;;;;;;;;;;5012897;28;20042;-47
2021/07/06 03:03:00;;;;;;;2.75;1.38;;;;;;;;;;4993543;28;20117;-48
2021/07/06 03:05:31;;;;;;;3.08;1.63;;;;;;;;;;4999076;28;20451;-50
2021/07/06 03:07:59;;;;;;;1.58;1.30;;;;;;;;;;5013743;28;20152;-50
2021/07/06 03:10:26;;;;;;;2.45;1.63;;;;;;;;;;4997652;28;20038;-50
2021/07/06 03:12:53;;;;;;;3.05;1.63;;;;;;;;;;4993395;28;20070;-50
2021/07/06 03:15:21;;;;;;;1.95;1.48;;;;;;;;;;4993950;28;20508;-47
2021/07/06 03:17:48;;;;;;;2.10;1.30;;;;;;;;;;4993864;28;20043;-47
2021/07/06 03:20:17;;;;;;;2.65;1.30;;;;;;;;;;5009879;28;20042;-48
2021/07/06 03:22:44;;;;;;;2.30;1.40;;;;;;;;;;5009740;28;20121;-52
2021/07/06 03:25:12;;;;;;;2.38;1.67;;;;;;;;;;5012110;28;20049;-48
2021/07/06 03:27:39;;;;;;;5.00;1.40;;;;;;;;;;5017944;28;20072;-49
2021/07/06 03:30:07;;;;;;;3.35;1.27;;;;;;;;;;4997621;28;20097;-51
2021/07/06 03:32:34;;;;;;;2.55;1.40;;;;;;;;;;4992934;28;20073;-48
2021/07/06 03:35:01;;;;;;;2.72;1.25;;;;;;;;;;4992498;28;20073;-46
2021/07/06 03:37:28;;;;;;;1.42;1.15;;;;;;;;;;4993842;28;20065;-48
2021/07/06 03:39:55;;;;;;;1.52;1.08;;;;;;;;;;5002093;28;20038;-46
2021/07/06 03:42:22;;;;;;;2.28;1.40;;;;;;;;;;4992874;28;20074;-45
2021/07/06 03:44:48;;;;;;;2.25;1.30;;;;;;;;;;4993670;28;20468;-52
2021/07/06 03:47:15;;;;;;;1.98;1.42;;;;;;;;;;4997759;28;20044;-52
2021/07/06 03:49:42;;;;;;;1.95;1.30;;;;;;;;;;4998683;28;20468;-49
2021/07/06 03:52:09;;;;;;;2.30;1.65;;;;;;;;;;4995608;28;20120;-50
2021/07/06 03:54:35;;;;;;;2.85;1.38;;;;;;;;;;4993975;28;20126;-51
2021/07/06 03:57:02;;;;;;;2.80;1.40;;;;;;;;;;4995735;28;20046;-48
2021/07/06 03:59:29;;;;;;;4.07;1.45;;;;;;;;;;5013017;28;20042;-47
2021/07/06 04:01:56;;;;;;;4.97;1.35;;;;;;;;;;5009483;28;20053;-48
2021/07/06 04:04:24;;;;;;;4.10;1.58;;;;;;;;;;4992826;28;20046;-48
2021/07/06 04:06:50;;;;;;;5.47;1.35;;;;;;;;;;4993023;28;20464;-47
2021/07/06 04:09:17;;;;;;;2.15;1.42;;;;;;;;;;5011962;28;20049;-47
2021/07/06 04:11:44;;;;;;;1.52;1.13;;;;;;;;;;5012117;28;20125;-49
2021/07/06 04:14:11;;;;;;;4.65;1.45;;;;;;;;;;5001935;28;20120;-48
2021/07/06 04:16:38;;;;;;;4.13;1.50;;;;;;;;;;4992881;28;20129;-45
2021/07/06 04:19:08;;;;;;;2.65;1.27;;;;;;;;;;4992820;28;20042;-44
2021/07/06 04:21:35;;;;;;;3.40;1.30;;;;;;;;;;4991318;28;20529;-47
2021/07/06 04:24:02;;;;;;;2.30;1.33;;;;;;;;;;4994406;28;20070;-45
2021/07/06 04:26:29;;;;;;;2.38;1.38;;;;;;;;;;4992707;28;20052;-45
2021/07/06 04:28:56;;;;;;;3.08;1.52;;;;;;;;;;4992589;28;20125;-45
2021/07/06 04:31:23;;;;;;;2.08;1.38;;;;;;;;;;4992711;28;20385;-45
2021/07/06 04:33:50;;;;;;;1.83;1.27;;;;;;;;;;4993751;28;20475;-50
2021/07/06 04:36:16;;;;;;;1.95;1.20;;;;;;;;;;4992881;28;20512;-44
2021/07/06 04:38:43;;;;;;;4.03;1.75;;;;;;;;;;4992862;28;20137;-47
2021/07/06 04:41:10;;;;;;;2.33;1.42;;;;;;;;;;4992270;28;20133;-50
2021/07/06 04:43:37;;;;;;;1.70;1.10;;;;;;;;;;5004249;28;20125;-50
2021/07/06 04:46:04;;;;;;;1.42;1.10;;;;;;;;;;5011940;28;20133;-45
2021/07/06 04:48:31;;;;;;;2.03;1.23;;;;;;;;;;5007984;28;20454;-46
2021/07/06 04:51:04;;;;;;;1.70;1.23;;;;;;;;;;4992306;28;20050;-45
2021/07/06 04:53:31;;;;;;;3.10;1.30;;;;;;;;;;4993397;28;20418;-48
2021/07/06 04:55:59;;;;;;;2.65;1.27;;;;;;;;;;4992894;28;20457;-47
2021/07/06 04:58:25;;;;;;;2.20;1.20;;;;;;;;;;4992187;28;20088;-47
2021/07/06 05:00:52;;;;;;;1.95;1.27;;;;;;;;;;4992104;28;20042;-50
2021/07/06 05:03:19;;;;;;;1.67;1.30;;;;;;;;;;5000544;28;20042;-50
2021/07/06 05:05:45;;;;;;;2.70;1.60;;;;;;;;;;5010006;28;20140;-47
2021/07/06 05:08:12;;;;;;;1.88;1.23;;;;;;;;;;5009384;28;20037;-47
2021/07/06 05:10:39;;;;;;;2.28;1.27;;;;;;;;;;5011489;28;20042;-50
2021/07/06 05:13:11;;;;;;;2.28;1.30;;;;;;;;;;4998918;28;20042;-48
2021/07/06 05:15:38;;;;;;;2.72;1.40;;;;;;;;;;5001790;28;20048;-50
2021/07/06 05:18:05;;;;;;;2.78;1.30;;;;;;;;;;4991787;28;20121;-51
2021/07/06 05:20:32;;;;;;;4.03;1.35;;;;;;;;;;4991614;28;20034;-50
2021/07/06 05:22:59;;;;;;;2.60;1.35;;;;;;;;;;4999906;28;20514;-52
2021/07/06 05:25:26;;;;;;;1.73;1.20;;;;;;;;;;4999352;28;20069;-50
2021/07/06 05:27:57;;;;;;;1.85;1.30;;;;;;;;;;5007624;28;20042;-48
2021/07/06 05:30:23;;;;;;;1.95;1.40;;;;;;;;;;4995380;28;20085;-51
2021/07/06 05:32:50;;;;;;;3.30;1.38;;;;;;;;;;4997988;28;20121;-47
2021/07/06 05:35:17;;;;;;;2.95;1.50;;;;;;;;;;5010915;28;20038;-47
2021/07/06 05:37:44;;;;;;;2.45;1.55;;;;;;;;;;5009285;28;20046;-47
2021/07/06 05:40:12;;;;;;;2.28;1.48;;;;;;;;;;5011312;28;20073;-50
2021/07/06 05:42:39;;;;;;;2.40;1.33;;;;;;;;;;5001955;28;21484;-47
2021/07/06 05:45:07;;;;;;;3.45;1.40;;;;;;;;;;5003998;28;20081;-48
2021/07/06 05:47:35;;;;;;;2.75;1.40;;;;;;;;;;5007065;28;20042;-47
2021/07/06 05:50:03;;;;;;;3.50;1.35;;;;;;;;;;4991413;28;20042;-46
2021/07/06 05:52:30;;;;;;;2.60;1.50;;;;;;;;;;4991267;28;20042;-46
2021/07/06 05:54:56;;;;;;;4.97;1.70;;;;;;;;;;5011065;28;20128;-48
2021/07/06 05:57:29;;;;;;;2.45;1.45;;;;;;;;;;5010886;28;20129;-47
2021/07/06 06:00:00;;;;;;;3.17;1.40;;;;;;;;;;4991474;28;20050;-45
2021/07/06 06:02:28;;;;;;;4.18;1.20;;;;;;;;;;4990730;28;20384;-52
2021/07/06 06:04:55;;;;;;;3.15;1.50;;;;;;;;;;5010777;28;20046;-48
2021/07/06 06:07:23;;;;;;;3.60;1.42;;;;;;;;;;5009530;28;20149;-46
2021/07/06 06:09:50;;;;;;;5.10;1.50;;;;;;;;;;5007789;28;20112;-45
2021/07/06 06:12:17;;;;;;;2.50;1.20;;;;;;;;;;4994302;28;20049;-45
2021/07/06 06:14:44;;;;;;;3.17;1.52;;;;;;;;;;5000872;28;20458;-46
2021/07/06 06:17:11;;;;;;;2.80;1.50;;;;;;;;;;5000792;28;20108;-47
2021/07/06 06:19:37;;;;;;;1.65;1.17;;;;;;;;;;4997556;28;20549;-46
2021/07/06 06:22:04;;;;;;;1.90;1.40;;;;;;;;;;5002833;28;20050;-47
2021/07/06 06:24:41;;;;;;;2.67;1.70;;;;;;;;;;4998678;28;20046;-47
2021/07/06 06:27:12;;;;;;;2.85;1.50;;;;;;;;;;5004273;28;20106;-46
2021/07/06 06:29:38;;;;;;;2.50;1.33;;;;;;;;;;4999265;28;20122;-48
2021/07/06 06:32:05;;;;;;;5.03;1.55;;;;;;;;;;5005086;28;20056;-48
2021/07/06 06:34:32;;;;;;;3.40;1.40;;;;;;;;;;5006745;28;20044;-49
2021/07/06 06:36:59;;;;;;;2.03;1.10;;;;;;;;;;5000990;28;20054;-47
2021/07/06 06:39:26;;;;;;;6.15;1.33;;;;;;;;;;4998743;28;20505;-51
2021/07/06 06:41:53;;;;;;;2.67;1.40;;;;;;;;;;5005797;28;20429;-49
2021/07/06 06:44:19;;;;;;;1.98;1.20;;;;;;;;;;4989715;28;20065;-51
2021/07/06 06:46:46;;;;;;;4.07;1.55;;;;;;;;;;4990802;28;20091;-50
2021/07/06 06:49:13;;;;;;;3.17;1.60;;;;;;;;;;5004064;28;20068;-48
2021/07/06 06:51:40;;;;;;;2.65;1.38;;;;;;;;;;5002182;28;20462;-50
2021/07/06 06:54:07;;;;;;;1.83;1.35;;;;;;;;;;4995795;28;20052;-51
2021/07/06 06:56:36;;;;;;;3.03;1.73;;;;;;;;;;5005347;28;20047;-50
2021/07/06 06:59:03;;;;;;;2.75;1.38;;;;;;;;;;5007322;28;20050;-50
2021/07/06 07:01:29;;;;;;;2.83;1.58;;;;;;;;;;5009765;28;20152;-48
2021/07/06 07:03:56;;;;;;;3.58;1.20;;;;;;;;;;5007971;28;20041;-48
2021/07/06 07:06:23;;;;;;;2.67;1.65;;;;;;;;;;5013185;28;20048;-48
2021/07/06 07:08:50;;;;;;;8.05;1.35;;;;;;;;;;5010374;28;20124;-49
2021/07/06 07:11:17;;;;;;;4.10;1.30;;;;;;;;;;5013043;28;20505;-48
2021/07/06 07:13:43;;;;;;;3.30;1.20;;;;;;;;;;5012093;28;20578;-51
2021/07/06 07:16:10;;;;;;;3.75;1.30;;;;;;;;;;5012399;28;20101;-48
2021/07/06 07:18:38;;;;;;;2.63;1.20;;;;;;;;;;5012682;28;20080;-49
2021/07/06 07:21:04;;;;;;;3.53;1.15;;;;;;;;;;5012750;28;20046;-50
2021/07/06 07:23:31;;;;;;;1.75;1.10;;;;;;;;;;5008226;28;20425;-48
2021/07/06 07:25:58;;;;;;;2.13;1.40;;;;;;;;;;5011582;28;20045;-49
2021/07/06 07:28:25;;;;;;;2.33;1.10;;;;;;;;;;5011541;28;20136;-47
2021/07/06 07:30:52;;;;;;;4.63;1.20;;;;;;;;;;5012071;28;20045;-49
2021/07/06 07:33:18;;;;;;;4.70;1.80;;;;;;;;;;5011178;28;20037;-50
2021/07/06 07:35:45;;;;;;;6.95;1.95;;;;;;;;;;5012299;28;20048;-52
2021/07/06 07:38:12;;;;;;;2.47;1.20;;;;;;;;;;5014542;28;20551;-51
2021/07/06 07:40:38;;;;;;;4.05;1.23;;;;;;;;;;5005669;28;20401;-49
2021/07/06 07:43:08;;;;;;;2.85;1.00;;;;;;;;;;5003232;28;20396;-49
2021/07/06 07:45:35;;;;;;;2.03;1.00;;;;;;;;;;5004656;28;20141;-49
2021/07/06 07:48:03;;;;;;;2.25;1.05;;;;;;;;;;5012146;28;20073;-46
2021/07/06 07:50:31;;;;;;;1.50;1.00;;;;;;;;;;5007714;28;20062;-47
2021/07/06 07:52:57;;;;;;;1.10;1.00;;;;;;;;;;5006376;28;20123;-50
2021/07/06 07:55:24;;;;;;;1.58;1.00;;;;;;;;;;5014104;28;20448;-49
2021/07/06 07:57:51;;;;;;;3.60;1.08;;;;;;;;;;5012964;28;20129;-48
2021/07/06 08:00:18;;;;;;;3.67;1.05;;;;;;;;;;5017072;28;20056;-49
2021/07/06 08:02:45;;;;;;;1.67;0.90;;;;;;;;;;5016850;28;20450;-47
2021/07/06 08:05:14;;;;;;;2.70;1.10;;;;;;;;;;5011974;28;20057;-47
2021/07/06 08:07:41;;;;;;;2.53;1.20;;;;;;;;;;5012665;28;20042;-48
2021/07/06 08:10:08;;;;;;;1.42;0.95;;;;;;;;;;5010164;28;20505;-47
2021/07/06 08:12:34;;;;;;;1.85;1.10;;;;;;;;;;5010456;28;20121;-48
2021/07/06 08:15:02;;;;;;;1.77;0.90;;;;;;;;;;5012069;28;20085;-48
2021/07/06 08:17:29;;;;;;;2.38;1.10;;;;;;;;;;5006227;28;20051;-49
2021/07/06 08:19:59;;;;;;;1.95;1.05;;;;;;;;;;5009106;28;20128;-48
2021/07/06 08:22:26;;;;;;;4.90;1.08;;;;;;;;;;5008004;28;20137;-52
2021/07/06 08:24:54;;;;;;;1.10;1.00;;;;;;;;;;5008926;28;20048;-51
2021/07/06 08:27:20;;;;;;;3.38;1.02;;;;;;;;;;5005242;28;20403;-48
2021/07/06 08:29:47;;;;;;;3.85;1.15;;;;;;;;;;5008092;28;20482;-47
2021/07/06 08:32:15;;;;;;;4.43;1.45;;;;;;;;;;5005876;28;20123;-50
2021/07/06 08:34:42;;;;;;;1.85;1.15;;;;;;;;;;5006702;28;20332;-47
2021/07/06 08:37:09;;;;;;;4.10;1.20;;;;;;;;;;5011827;28;20088;-53
2021/07/06 08:39:36;;;;;;;1.52;1.10;;;;;;;;;;5009463;28;20499;-46
2021/07/06 08:42:06;;;;;;;1.42;1.02;;;;;;;;;;5004404;28;20141;-47
2021/07/06 08:44:34;;;;;;;2.85;1.50;;;;;;;;;;5007477;28;20664;-48
2021/07/06 08:47:01;;;;;;;2.53;1.10;;;;;;;;;;5000989;28;20072;-46
2021/07/06 08:49:28;;;;;;;2.53;1.17;;;;;;;;;;5003571;28;20134;-47
2021/07/06 08:51:55;;;;;;;1.73;1.30;;;;;;;;;;5006157;28;20539;-47
2021/07/06 08:54:22;;;;;;;1.35;1.00;;;;;;;;;;5006286;28;20105;-56
2021/07/06 08:56:49;;;;;;;2.90;1.17;;;;;;;;;;5005841;28;20360;-50
2021/07/06 08:59:29;;;;;;;2.25;1.20;;;;;;;;;;5007026;28;20363;-47
2021/07/06 09:01:55;;;;;;;2.47;1.30;;;;;;;;;;5007014;28;20069;-47
2021/07/06 09:04:23;;;;;;;1.30;0.88;;;;;;;;;;5008832;28;20427;-47
2021/07/06 09:06:57;;;;;;;3.33;1.20;;;;;;;;;;5009326;28;20037;-45
2021/07/06 09:09:26;;;;;;;2.22;1.38;;;;;;;;;;5007496;28;20066;-50
2021/07/06 09:12:00;;;;;;;1.40;0.95;;;;;;;;;;5001542;28;20431;-46
2021/07/06 09:14:30;;;;;;;1.65;1.00;;;;;;;;;;5009686;28;20098;-46
2021/07/06 09:17:06;;;;;;;2.20;1.05;;;;;;;;;;5008253;28;20176;-46
2021/07/06 09:19:33;;;;;;;3.17;1.02;;;;;;;;;;5003683;28;20463;-46
2021/07/06 09:22:09;;;;;;;1.77;1.10;;;;;;;;;;5007017;28;20095;-48
2021/07/06 09:24:36;;;;;;;1.95;1.10;;;;;;;;;;5007088;28;20126;-47
2021/07/06 09:27:20;;;;;;;1.38;0.90;;;;;;;;;;5016146;28;20100;-48
2021/07/06 09:30:05;;;;;;;1.27;0.90;;;;;;;;;;5010098;28;20205;-48
2021/07/06 09:32:42;;;;;;;2.70;1.10;;;;;;;;;;5006407;28;20563;-48
2021/07/06 09:35:12;;;;;;;2.25;1.00;;;;;;;;;;5007818;28;20076;-45
2021/07/06 09:37:45;;;;;;;1.70;1.10;;;;;;;;;;5009612;28;20129;-46
2021/07/06 09:40:21;;;;;;;2.00;0.80;;;;;;;;;;4997346;28;20470;-47
2021/07/06 09:43:08;;;;;;;3.38;1.00;;;;;;;;;;5008294;28;20518;-47
2021/07/06 09:45:35;;;;;;;2.88;1.00;;;;;;;;;;5007988;28;20133;-49
2021/07/06 09:48:05;;;;;;;3.38;1.00;;;;;;;;;;5007809;28;20118;-46
2021/07/06 09:50:32;;;;;;;4.57;2.00;;;;;;;;;;5008499;28;20492;-50
2021/07/06 09:53:02;;;;;;;2.35;1.30;;;;;;;;;;5008598;28;20048;-48
2021/07/06 09:55:32;;;;;;;1.27;1.05;;;;;;;;;;5004968;28;20128;-47
2021/07/06 09:58:03;;;;;;;3.22;1.00;;;;;;;;;;5010132;28;20120;-46
2021/07/06 10:00:31;;;;;;;1.43;1.10;;;;;;;;;;5009388;28;20419;-51
2021/07/06 10:03:00;;;;;;;1.58;1.02;;;;;;;;;;5004469;28;20053;-52
2021/07/06 10:05:28;;;;;;;2.88;1.05;;;;;;;;;;5009602;28;20053;-50
2021/07/06 10:07:55;;;;;;;2.72;1.00;;;;;;;;;;5009814;28;20573;-48
2021/07/06 10:10:22;;;;;;;1.63;1.10;;;;;;;;;;5007450;28;20391;-48
2021/07/06 10:12:49;;;;;;;1.80;1.00;;;;;;;;;;5003702;28;20109;-49
2021/07/06 10:15:18;;;;;;;1.65;0.90;;;;;;;;;;5009537;28;20053;-50
2021/07/06 10:17:50;;;;;;;4.45;1.20;;;;;;;;;;5006294;28;20097;-52
2021/07/06 10:20:21;;;;;;;4.65;1.15;;;;;;;;;;5000963;28;20431;-48
2021/07/06 10:22:49;;;;;;;1.75;1.10;;;;;;;;;;5003405;28;20085;-49
2021/07/06 10:25:18;;;;;;;4.63;1.02;;;;;;;;;;5001451;28;20092;-48
2021/07/06 10:27:50;;;;;;;1.50;0.88;;;;;;;;;;5004818;28;20438;-49
2021/07/06 10:30:21;;;;;;;4.45;1.17;;;;;;;;;;5007588;28;20069;-47
2021/07/06 10:32:55;;;;;;;2.45;1.10;;;;;;;;;;5008920;28;20053;-49
2021/07/06 10:35:42;;;;;;;3.15;0.90;;;;;;;;;;5012449;28;20042;-46
2021/07/06 10:40:59;;;;;;;1.17;0.80;;;;;;;;;;5010474;28;20038;-47
2021/07/06 10:43:38;;;;;;;7.90;1.10;;;;;;;;;;5011754;28;20049;-49
2021/07/06 10:46:19;;;;;;;4.68;1.10;;;;;;;;;;5009442;28;20578;-47
2021/07/06 10:49:00;;;;;;;1.85;0.88;;;;;;;;;;5007493;28;20049;-51
2021/07/06 10:51:36;;;;;;;2.20;1.00;;;;;;;;;;5006481;28;20049;-48
2021/07/06 10:54:06;;;;;;;4.65;1.20;;;;;;;;;;5003876;28;20041;-47
2021/07/06 10:56:34;;;;;;;3.28;1.20;;;;;;;;;;5010394;28;20125;-46
2021/07/06 10:59:03;;;;;;;3.03;1.08;;;;;;;;;;5011562;28;20045;-47
2021/07/06 11:01:35;;;;;;;3.70;1.00;;;;;;;;;;5011963;28;20046;-47
2021/07/06 11:04:10;;;;;;;1.80;0.98;;;;;;;;;;5012032;28;20050;-47
2021/07/06 11:06:40;;;;;;;1.02;0.80;;;;;;;;;;5012879;28;20038;-51
2021/07/06 11:09:07;;;;;;;2.47;1.10;;;;;;;;;;5007407;28;20042;-45
2021/07/06 11:11:34;;;;;;;2.55;0.98;;;;;;;;;;5012675;28;20394;-50
2021/07/06 11:14:17;;;;;;;1.95;1.00;;;;;;;;;;5011387;28;20466;-47
2021/07/06 11:16:54;;;;;;;6.20;1.20;;;;;;;;;;5013230;28;20216;-49
2021/07/06 11:19:31;;;;;;;8.13;1.10;;;;;;;;;;5005142;28;20508;-50
2021/07/06 11:22:11;;;;;;;1.40;1.00;;;;;;;;;;5008758;28;20111;-51
2021/07/06 11:24:42;;;;;;;4.47;1.00;;;;;;;;;;5011126;28;20069;-50
2021/07/06 11:27:11;;;;;;;3.08;1.00;;;;;;;;;;5011702;28;20519;-48
2021/07/06 11:29:39;;;;;;;1.23;0.90;;;;;;;;;;5011730;28;20390;-49
2021/07/06 11:32:14;;;;;;;3.10;1.00;;;;;;;;;;5007865;28;20042;-51
2021/07/06 11:34:41;;;;;;;4.60;1.00;;;;;;;;;;5013641;28;20078;-51
2021/07/06 11:37:10;;;;;;;6.55;1.90;;;;;;;;;;5010389;28;20037;-49
2021/07/06 11:39:36;;;;;;;4.15;1.00;;;;;;;;;;4998073;28;20060;-50
2021/07/06 11:42:04;;;;;;;2.58;1.20;;;;;;;;;;5009355;28;20559;-50
2021/07/06 11:44:31;;;;;;;2.67;0.90;;;;;;;;;;5012152;28;20559;-49
2021/07/06 11:47:10;;;;;;;2.03;0.93;;;;;;;;;;5010525;28;20428;-51
2021/07/06 11:49:37;;;;;;;2.90;0.90;;;;;;;;;;4993687;28;20504;-51
2021/07/06 11:52:04;;;;;;;2.45;1.00;;;;;;;;;;5010405;28;20042;-50
2021/07/06 11:54:32;;;;;;;1.15;0.75;;;;;;;;;;5010999;28;20145;-50
2021/07/06 11:57:02;;;;;;;0.70;0.70;;;;;;;;;;5012897;28;20048;-51
2021/07/06 11:59:29;;;;;;;1.73;1.20;;;;;;;;;;5011149;28;20046;-47
2021/07/06 12:02:09;;;;;;;1.45;0.90;;;;;;;;;;5004028;28;20430;-51
2021/07/06 12:04:36;;;;;;;1.45;0.68;;;;;;;;;;5010037;28;20132;-50
2021/07/06 12:07:04;;;;;;;1.77;0.70;;;;;;;;;;5010461;28;20088;-47
2021/07/06 12:09:31;;;;;;;4.32;1.02;;;;;;;;;;5009753;28;20053;-46
2021/07/06 12:12:11;;;;;;;1.08;0.80;;;;;;;;;;5010962;28;20042;-47
2021/07/06 12:14:45;;;;;;;1.27;0.77;;;;;;;;;;5011975;28;20057;-46
2021/07/06 12:17:21;;;;;;;2.88;0.70;;;;;;;;;;5010273;28;20041;-48
2021/07/06 12:19:48;;;;;;;1.13;0.80;;;;;;;;;;5008092;28;20112;-46
2021/07/06 12:22:22;;;;;;;0.90;0.80;;;;;;;;;;5008641;28;20470;-48
2021/07/06 12:24:50;;;;;;;1.77;0.70;;;;;;;;;;5008944;28;20152;-47
2021/07/06 12:27:18;;;;;;;1.35;1.00;;;;;;;;;;5009451;28;20061;-47
2021/07/06 12:29:55;;;;;;;4.07;1.00;;;;;;;;;;5011572;28;20499;-46
2021/07/06 12:32:22;;;;;;;3.13;0.83;;;;;;;;;;5005658;28;20125;-47
2021/07/06 12:34:58;;;;;;;2.17;0.70;;;;;;;;;;5007725;28;20688;-47
2021/07/06 12:37:26;;;;;;;1.13;0.80;;;;;;;;;;5010895;28;20562;-51
2021/07/06 12:40:14;;;;;;;1.92;0.90;;;;;;;;;;5011003;28;20519;-46
2021/07/06 12:42:42;;;;;;;1.00;0.70;;;;;;;;;;5003868;28;20043;-46
2021/07/06 12:45:10;;;;;;;6.70;1.15;;;;;;;;;;5001668;28;20370;-47
2021/07/06 12:47:41;;;;;;;1.70;0.93;;;;;;;;;;5010271;28;20057;-47
2021/07/06 12:50:14;;;;;;;2.45;1.08;;;;;;;;;;5003302;28;20041;-47
2021/07/06 12:52:42;;;;;;;1.33;0.90;;;;;;;;;;5007965;28;20736;-46
2021/07/06 12:55:09;;;;;;;4.22;1.25;;;;;;;;;;5007696;28;20508;-47
2021/07/06 12:57:37;;;;;;;2.90;1.10;;;;;;;;;;5010029;28;20065;-47
2021/07/06 13:00:10;;;;;;;1.67;0.80;;;;;;;;;;5009432;28;20707;-47
2021/07/06 13:02:48;;;;;;;3.92;0.90;;;;;;;;;;5008597;28;20058;-49
2021/07/06 13:05:20;;;;;;;3.55;0.77;;;;;;;;;;5009261;28;20668;-47
2021/07/06 13:07:47;;;;;;;2.50;0.80;;;;;;;;;;5011542;28;20038;-48
2021/07/06 13:10:20;;;;;;;1.67;1.02;;;;;;;;;;5002352;28;20458;-46
2021/07/06 13:12:53;;;;;;;1.45;0.75;;;;;;;;;;5010852;28;20125;-46
2021/07/06 13:15:25;;;;;;;1.42;1.05;;;;;;;;;;5009463;28;20073;-47
2021/07/06 13:17:52;;;;;;;0.95;0.85;;;;;;;;;;5001307;28;20048;-47
2021/07/06 13:20:19;;;;;;;1.30;0.77;;;;;;;;;;5008573;28;20121;-48
2021/07/06 13:22:47;;;;;;;2.45;0.80;;;;;;;;;;5008783;28;20500;-46
2021/07/06 13:25:16;;;;;;;0.85;0.65;;;;;;;;;;5003509;28;20050;-47
2021/07/06 13:27:52;;;;;;;1.23;0.60;;;;;;;;;;5002176;28;20411;-47
2021/07/06 13:30:19;;;;;;;1.95;0.73;;;;;;;;;;5006704;28;20033;-45
2021/07/06 13:32:47;;;;;;;1.83;0.73;;;;;;;;;;5008868;28;20148;-47
2021/07/06 13:35:16;;;;;;;0.65;0.65;;;;;;;;;;5007393;28;21014;-47
2021/07/06 13:37:44;;;;;;;3.13;0.70;;;;;;;;;;5008262;28;20044;-48
2021/07/06 13:40:12;;;;;;;0.98;0.70;;;;;;;;;;5010003;28;20076;-50
2021/07/06 13:42:40;;;;;;;1.83;0.70;;;;;;;;;;5009478;28;20050;-50
2021/07/06 13:45:08;;;;;;;4.03;0.80;;;;;;;;;;5004897;28;20466;-47
2021/07/06 13:47:36;;;;;;;1.63;0.70;;;;;;;;;;5008938;28;20468;-49
2021/07/06 13:50:04;;;;;;;4.07;0.93;;;;;;;;;;5010744;28;20034;-46
2021/07/06 13:52:31;;;;;;;3.42;0.73;;;;;;;;;;5007927;28;20052;-46
2021/07/06 13:54:59;;;;;;;2.15;0.88;;;;;;;;;;5006209;28;20116;-45
2021/07/06 13:57:26;;;;;;;2.45;0.77;;;;;;;;;;5009404;28;20073;-44
2021/07/06 13:59:53;;;;;;;1.00;0.73;;;;;;;;;;5009190;28;20133;-48
2021/07/06 14:02:20;;;;;;;2.85;0.90;;;;;;;;;;5008146;28;20132;-44
2021/07/06 14:04:48;;;;;;;1.23;0.80;;;;;;;;;;5010164;28;20125;-46
2021/07/06 14:07:16;;;;;;;2.03;0.82;;;;;;;;;;5008982;28;20042;-48
2021/07/06 14:09:43;;;;;;;1.35;0.90;;;;;;;;;;5009915;28;20160;-45
2021/07/06 14:12:11;;;;;;;2.75;0.73;;;;;;;;;;5013503;28;20080;-49
2021/07/06 14:14:38;;;;;;;1.17;0.75;;;;;;;;;;5012942;28;20034;-45
2021/07/06 14:17:08;;;;;;;1.70;0.80;;;;;;;;;;5012982;28;20446;-49
2021/07/06 14:19:34;;;;;;;3.00;0.73;;;;;;;;;;5008848;28;20046;-49
2021/07/06 14:22:02;;;;;;;1.85;0.70;;;;;;;;;;5015091;28;20050;-50
2021/07/06 14:24:33;;;;;;;1.20;0.52;;;;;;;;;;5007668;28;20042;-49
2021/07/06 14:27:01;;;;;;;0.60;0.60;;;;;;;;;;5009644;28;20038;-51
2021/07/06 14:29:29;;;;;;;1.40;0.90;;;;;;;;;;5013339;28;20049;-49
2021/07/06 14:31:56;;;;;;;3.88;0.90;;;;;;;;;;5011566;28;20616;-48
2021/07/06 14:34:30;;;;;;;4.90;0.80;;;;;;;;;;5011667;28;20065;-51
2021/07/06 14:36:57;;;;;;;1.55;0.90;;;;;;;;;;5013435;28;20037;-48
2021/07/06 14:39:24;;;;;;;2.05;0.85;;;;;;;;;;5013931;28;20522;-52
2021/07/06 14:41:53;;;;;;;1.98;0.88;;;;;;;;;;5008738;28;20141;-52
2021/07/06 14:44:22;;;;;;;2.15;0.80;;;;;;;;;;5010291;28;20517;-49
2021/07/06 14:46:49;;;;;;;1.42;0.77;;;;;;;;;;5013880;28;20060;-49
2021/07/06 14:49:16;;;;;;;3.47;1.20;;;;;;;;;;5010628;28;20665;-50
2021/07/06 14:51:43;;;;;;;1.63;1.05;;;;;;;;;;5012368;28;20052;-49
2021/07/06 14:54:10;;;;;;;3.58;1.00;;;;;;;;;;5004349;28;20042;-50